createdAt,value
2022-10-25T00:01:16.979Z,100900.44
2022-10-25T00:03:45.229Z,100902.28
2022-10-25T00:06:12.994Z,100902.88
2022-10-25T00:08:40.119Z,100906.50
2022-10-25T00:11:10.576Z,100906.06
2022-10-25T00:13:37.627Z,100902.81
2022-10-25T00:16:04.888Z,100907.03
2022-10-25T00:18:31.682Z,100913.53
2022-10-25T00:21:04.302Z,100909.84
2022-10-25T00:23:31.096Z,100910.00
2022-10-25T00:26:01.666Z,100917.84
2022-10-25T00:28:28.492Z,100909.41
2022-10-25T00:31:00.401Z,100916.09
2022-10-25T00:33:30.834Z,100914.19
2022-10-25T00:36:04.297Z,100915.19
2022-10-25T00:38:31.438Z,100911.94
2022-10-25T00:40:58.285Z,100914.03
2022-10-25T00:43:35.897Z,100930.44
2022-10-25T00:46:06.981Z,100923.50
2022-10-25T00:48:34.753Z,100928.25
2022-10-25T00:51:03.586Z,100937.34
2022-10-25T00:53:35.171Z,100937.75
2022-10-25T00:56:05.550Z,100934.41
2022-10-25T00:58:35.954Z,100931.22
2022-10-25T01:01:07.263Z,100936.41
2022-10-25T01:03:37.021Z,100940.84
2022-10-25T01:06:07.729Z,100937.06
2022-10-25T01:08:34.882Z,100946.78
2022-10-25T01:11:01.740Z,100946.19
2022-10-25T01:13:28.599Z,100948.78
2022-10-25T01:16:04.875Z,100947.69
2022-10-25T01:18:43.433Z,100954.56
2022-10-25T01:21:37.064Z,100958.88
2022-10-25T01:24:21.257Z,100959.16
2022-10-25T01:27:12.300Z,100954.34
2022-10-25T01:30:08.319Z,100957.53
2022-10-25T01:32:41.800Z,100967.91
2022-10-25T01:35:17.418Z,100968.66
2022-10-25T01:37:58.904Z,100970.50
2022-10-25T01:40:32.969Z,100965.97
2022-10-25T01:43:07.527Z,100967.53
2022-10-25T01:45:40.583Z,100962.19
2022-10-25T01:48:14.520Z,100973.91
2022-10-25T01:50:45.564Z,100968.19
2022-10-25T01:53:12.799Z,100969.38
2022-10-25T01:55:47.978Z,100973.81
2022-10-25T01:58:28.824Z,100973.22
2022-10-25T02:01:03.746Z,100974.91
2022-10-25T02:03:38.034Z,100972.84
2022-10-25T02:06:17.573Z,100974.59
2022-10-25T02:08:49.710Z,100976.16
2022-10-25T02:11:23.871Z,100981.75
2022-10-25T02:14:00.110Z,100969.75
2022-10-25T02:16:29.450Z,100967.47
2022-10-25T02:19:01.533Z,100973.31
2022-10-25T02:21:31.575Z,100973.38
2022-10-25T02:23:59.956Z,100968.84
2022-10-25T02:26:28.152Z,100971.75
2022-10-25T02:28:56.025Z,100978.00
2022-10-25T02:31:24.816Z,100985.34
2022-10-25T02:33:52.103Z,100981.34
2022-10-25T02:36:22.479Z,100988.59
2022-10-25T02:38:50.998Z,100983.56
2022-10-25T02:41:18.619Z,100984.00
2022-10-25T02:43:45.409Z,100987.72
2022-10-25T02:46:14.509Z,100979.38
2022-10-25T02:48:41.887Z,100985.25
2022-10-25T02:51:10.308Z,100982.16
2022-10-25T02:53:39.328Z,100994.59
2022-10-25T02:56:07.725Z,100979.50
2022-10-25T02:58:36.319Z,100983.44
2022-10-25T03:01:03.886Z,100984.34
2022-10-25T03:03:31.192Z,100983.63
2022-10-25T03:05:58.775Z,100986.34
2022-10-25T03:08:26.234Z,100980.81
2022-10-25T03:10:54.910Z,100997.69
2022-10-25T03:13:22.201Z,100992.00
2022-10-25T03:15:48.988Z,100984.63
2022-10-25T03:18:16.193Z,100991.56
2022-10-25T03:20:43.529Z,100990.16
2022-10-25T03:23:10.753Z,100993.19
2022-10-25T03:25:37.683Z,100994.97
2022-10-25T03:28:06.189Z,100994.88
2022-10-25T03:30:33.311Z,100992.06
2022-10-25T03:33:00.306Z,100998.88
2022-10-25T03:35:27.571Z,100999.22
2022-10-25T03:37:54.392Z,101018.25
2022-10-25T03:40:22.325Z,101018.25
2022-10-25T03:42:49.107Z,101019.28
2022-10-25T03:45:17.805Z,101019.19
2022-10-25T03:47:45.420Z,101032.09
2022-10-25T03:50:12.554Z,101035.53
2022-10-25T03:52:39.566Z,101034.72
2022-10-25T03:55:07.117Z,101033.72
2022-10-25T03:57:34.379Z,101031.16
2022-10-25T04:00:01.314Z,101038.13
2022-10-25T04:02:29.442Z,101036.00
2022-10-25T04:04:56.481Z,101036.22
2022-10-25T04:07:23.202Z,101040.56
2022-10-25T04:09:49.929Z,101043.47
2022-10-25T04:12:16.662Z,101064.00
2022-10-25T04:14:43.546Z,101054.56
2022-10-25T04:17:10.392Z,101057.41
2022-10-25T04:19:38.542Z,101055.94
2022-10-25T04:22:05.597Z,101056.28
2022-10-25T04:24:32.539Z,101057.28
2022-10-25T04:26:59.415Z,101060.47
2022-10-25T04:29:26.396Z,101066.28
2022-10-25T04:31:53.189Z,101067.72
2022-10-25T04:34:19.971Z,101066.19
2022-10-25T04:36:48.219Z,101073.25
2022-10-25T04:39:15.014Z,101073.81
2022-10-25T04:41:41.824Z,101075.41
2022-10-25T04:44:09.287Z,101084.38
2022-10-25T04:46:36.108Z,101088.78
2022-10-25T04:49:02.889Z,101087.31
2022-10-25T04:51:29.919Z,101081.38
2022-10-25T04:53:58.031Z,101086.91
2022-10-25T04:56:24.888Z,101092.38
2022-10-25T04:58:51.685Z,101097.41
2022-10-25T05:01:18.657Z,101097.44
2022-10-25T05:03:45.908Z,101096.00
2022-10-25T05:06:14.913Z,101105.97
2022-10-25T05:08:43.332Z,101109.41
2022-10-25T05:11:12.936Z,101108.13
2022-10-25T05:13:41.190Z,101109.28
2022-10-25T05:16:11.220Z,101106.94
2022-10-25T05:18:38.168Z,101108.13
2022-10-25T05:21:06.523Z,101104.03
2022-10-25T05:23:34.638Z,101106.75
2022-10-25T05:26:02.882Z,101111.75
2022-10-25T05:28:31.067Z,101110.31
2022-10-25T05:30:57.965Z,101118.09
2022-10-25T05:33:24.735Z,101104.22
2022-10-25T05:35:51.585Z,101114.66
2022-10-25T05:38:18.316Z,101115.22
2022-10-25T05:40:53.300Z,101129.25
2022-10-25T05:43:20.129Z,101126.81
2022-10-25T05:45:48.323Z,101129.44
2022-10-25T05:48:15.445Z,101127.16
2022-10-25T05:53:14.139Z,101127.00
2022-10-25T05:55:40.848Z,101129.34
2022-10-25T05:58:07.581Z,101125.72
2022-10-25T06:00:34.536Z,101125.72
2022-10-25T06:03:03.151Z,101120.44
2022-10-25T06:05:30.004Z,101124.69
2022-10-25T06:07:56.822Z,101127.41
2022-10-25T06:10:23.624Z,101122.19
2022-10-25T06:12:50.403Z,101132.38
2022-10-25T06:15:17.224Z,101132.22
2022-10-25T06:17:44.078Z,101127.66
2022-10-25T06:20:12.486Z,101135.75
2022-10-25T06:22:39.338Z,101134.78
2022-10-25T06:25:07.167Z,101146.97
2022-10-25T06:27:33.940Z,101147.97
2022-10-25T06:30:00.742Z,101150.69
2022-10-25T06:32:28.402Z,101156.88
2022-10-25T06:34:55.196Z,101154.78
2022-10-25T06:37:23.410Z,101150.78
2022-10-25T06:39:50.156Z,101147.25
2022-10-25T06:42:16.905Z,101148.13
2022-10-25T06:44:43.635Z,101166.03
2022-10-25T06:47:17.558Z,101170.38
2022-10-25T06:49:45.627Z,101174.22
2022-10-25T06:52:12.427Z,101179.72
2022-10-25T06:54:40.561Z,101175.97
2022-10-25T06:57:07.320Z,101182.72
2022-10-25T06:59:34.088Z,101186.09
2022-10-25T07:02:00.968Z,101181.09
2022-10-25T07:04:27.932Z,101183.06
2022-10-25T07:06:55.476Z,101186.91
2022-10-25T07:09:22.622Z,101190.84
2022-10-25T07:11:50.822Z,101188.81
2022-10-25T07:14:17.624Z,101186.94
2022-10-25T07:16:44.351Z,101197.75
2022-10-25T07:19:11.236Z,101194.34
2022-10-25T07:21:38.058Z,101199.63
2022-10-25T07:24:05.092Z,101206.97
2022-10-25T07:26:33.706Z,101202.06
2022-10-25T07:29:03.551Z,101202.28
2022-10-25T07:31:32.411Z,101206.53
2022-10-25T07:34:00.704Z,101202.72
2022-10-25T07:36:28.060Z,101205.66
2022-10-25T07:38:56.331Z,101206.84
2022-10-25T07:41:23.386Z,101209.03
2022-10-25T07:43:50.144Z,101214.84
2022-10-25T07:46:18.735Z,101213.38
2022-10-25T07:48:45.511Z,101215.44
2022-10-25T07:51:14.285Z,101216.59
2022-10-25T07:53:41.482Z,101212.03
2022-10-25T07:56:12.548Z,101215.84
2022-10-25T07:58:39.398Z,101230.59
2022-10-25T08:01:08.276Z,101233.59
2022-10-25T08:03:36.923Z,101229.34
2022-10-25T08:06:04.471Z,101232.47
2022-10-25T08:08:31.341Z,101231.59
2022-10-25T08:10:59.573Z,101235.81
2022-10-25T08:13:26.420Z,101238.38
2022-10-25T08:15:54.589Z,101248.09
2022-10-25T08:18:22.123Z,101244.66
2022-10-25T08:21:02.309Z,101245.16
2022-10-25T08:23:31.597Z,101244.84
2022-10-25T08:25:58.818Z,101250.03
2022-10-25T08:28:25.928Z,101252.84
2022-10-25T08:30:53.907Z,101252.34
2022-10-25T08:33:20.706Z,101245.47
2022-10-25T08:35:47.446Z,101240.59
2022-10-25T08:38:15.593Z,101252.63
2022-10-25T08:40:54.404Z,101256.91
2022-10-25T08:43:52.075Z,101250.06
2022-10-25T08:46:23.487Z,101258.03
2022-10-25T08:48:59.298Z,101258.53
2022-10-25T08:51:29.101Z,101261.94
2022-10-25T08:54:01.515Z,101260.81
2022-10-25T08:56:30.050Z,101265.91
2022-10-25T08:59:00.257Z,101268.94
2022-10-25T09:01:30.036Z,101270.31
2022-10-25T09:03:58.595Z,101266.88
2022-10-25T09:06:33.909Z,101271.88
2022-10-25T09:09:16.405Z,101269.66
2022-10-25T09:11:55.200Z,101261.72
2022-10-25T09:14:32.387Z,101265.03
2022-10-25T09:17:07.037Z,101269.81
2022-10-25T09:19:36.163Z,101271.94
2022-10-25T09:22:05.506Z,101264.72
2022-10-25T09:24:43.936Z,101274.72
2022-10-25T09:27:15.573Z,101291.88
2022-10-25T09:29:49.268Z,101282.88
2022-10-25T09:32:21.780Z,101285.56
2022-10-25T09:34:48.858Z,101288.13
2022-10-25T09:37:18.488Z,101292.78
2022-10-25T09:39:52.187Z,101287.09
2022-10-25T09:42:25.042Z,101294.78
2022-10-25T09:44:54.759Z,101293.41
2022-10-25T09:47:30.605Z,101296.03
2022-10-25T09:50:01.780Z,101292.38
2022-10-25T09:52:35.576Z,101298.19
2022-10-25T09:55:21.609Z,101302.25
2022-10-25T09:57:49.162Z,101295.59
2022-10-25T10:00:16.549Z,101290.69
2022-10-25T10:02:43.566Z,101297.06
2022-10-25T10:05:14.592Z,101295.06
2022-10-25T10:07:41.954Z,101288.47
2022-10-25T10:10:17.600Z,101300.38
2022-10-25T10:12:50.356Z,101287.94
2022-10-25T10:15:22.655Z,101291.34
2022-10-25T10:18:23.780Z,101291.19
2022-10-25T10:21:08.412Z,101289.75
2022-10-25T10:23:47.556Z,101290.09
2022-10-25T10:26:23.411Z,101288.03
2022-10-25T10:28:55.823Z,101283.97
2022-10-25T10:31:22.796Z,101277.94
2022-10-25T10:33:50.993Z,101282.72
2022-10-25T10:36:23.804Z,101283.47
2022-10-25T10:38:51.057Z,101278.56
2022-10-25T10:41:25.031Z,101281.41
2022-10-25T10:44:04.901Z,101269.75
2022-10-25T10:46:31.762Z,101275.78
2022-10-25T10:48:59.115Z,101282.03
2022-10-25T10:51:43.967Z,101278.41
2022-10-25T10:54:25.363Z,101277.75
2022-10-25T10:57:01.315Z,101281.50
2022-10-25T10:59:34.045Z,101281.00
2022-10-25T11:02:17.440Z,101279.13
2022-10-25T11:04:48.775Z,101282.97
2022-10-25T11:07:24.563Z,101285.53
2022-10-25T11:09:51.341Z,101278.84
2022-10-25T11:12:20.089Z,101278.16
2022-10-25T11:14:46.881Z,101287.81
2022-10-25T11:17:16.985Z,101290.00
2022-10-25T11:19:55.955Z,101285.41
2022-10-25T11:25:32.030Z,101297.22
2022-10-25T11:28:19.940Z,101295.31
2022-10-25T11:30:56.885Z,101294.97
2022-10-25T11:33:34.143Z,101290.03
2022-10-25T11:36:38.742Z,101282.59
2022-10-25T11:39:11.923Z,101287.97
2022-10-25T11:41:45.660Z,101287.63
2022-10-25T11:44:23.271Z,101282.63
2022-10-25T11:46:56.653Z,101285.44
2022-10-25T11:49:38.442Z,101284.53
2022-10-25T11:52:19.997Z,101292.84
2022-10-25T11:55:00.646Z,101299.91
2022-10-25T11:57:38.949Z,101290.00
2022-10-25T12:00:15.717Z,101292.03
2022-10-25T12:03:07.537Z,101290.25
2022-10-25T12:05:41.480Z,101302.47
2022-10-25T12:08:22.626Z,101289.03
2022-10-25T12:10:54.630Z,101295.63
2022-10-25T12:13:27.238Z,101292.88
2022-10-25T12:15:57.430Z,101294.19
2022-10-25T12:18:29.641Z,101296.72
2022-10-25T12:20:57.584Z,101294.03
2022-10-25T12:25:56.839Z,101291.34
2022-10-25T12:28:28.071Z,101289.22
2022-10-25T12:30:59.853Z,101288.81
2022-10-25T12:33:34.886Z,101289.53
2022-10-25T12:36:06.978Z,101283.66
2022-10-25T12:38:36.615Z,101278.09
2022-10-25T12:41:09.218Z,101278.59
2022-10-25T12:43:44.018Z,101274.41
2022-10-25T12:46:30.103Z,101275.13
2022-10-25T12:49:21.857Z,101269.03
2022-10-25T12:52:01.801Z,101277.69
2022-10-25T12:54:57.536Z,101268.53
2022-10-25T12:57:34.958Z,101262.09
2022-10-25T13:00:12.258Z,101267.13
2022-10-25T13:03:06.702Z,101264.66
2022-10-25T13:05:59.311Z,101271.50
2022-10-25T13:08:28.014Z,101262.97
2022-10-25T13:10:58.630Z,101268.38
2022-10-25T13:13:27.526Z,101263.06
2022-10-25T13:15:57.575Z,101252.97
2022-10-25T13:18:40.731Z,101247.13
2022-10-25T13:21:09.674Z,101246.50
2022-10-25T13:24:00.963Z,101232.28
2022-10-25T13:26:31.861Z,101244.00
2022-10-25T13:29:00.948Z,101235.69
2022-10-25T13:31:48.542Z,101233.41
2022-10-25T13:34:30.478Z,101237.91
2022-10-25T13:36:58.475Z,101232.16
2022-10-25T13:39:28.918Z,101238.16
2022-10-25T13:42:00.780Z,101234.19
2022-10-25T13:44:28.186Z,101232.66
2022-10-25T13:46:55.281Z,101226.19
2022-10-25T13:49:32.796Z,101236.13
2022-10-25T13:52:02.017Z,101231.06
2022-10-25T13:54:43.946Z,101235.97
2022-10-25T13:57:46.375Z,101231.75
2022-10-25T14:00:36.796Z,101219.66
2022-10-25T14:03:24.596Z,101216.53
2022-10-25T14:06:29.792Z,101218.91
2022-10-25T14:09:08.957Z,101215.34
2022-10-25T14:11:40.953Z,101215.44
2022-10-25T14:14:22.077Z,101208.44
2022-10-25T14:17:00.560Z,101205.06
2022-10-25T14:19:37.641Z,101206.69
2022-10-25T14:22:14.518Z,101208.31
2022-10-25T14:24:42.314Z,101209.91
2022-10-25T14:27:31.651Z,101210.84
2022-10-25T14:30:23.334Z,101205.91
2022-10-25T14:32:52.473Z,101199.50
2022-10-25T14:35:20.640Z,101191.78
2022-10-25T14:37:49.162Z,101185.72
2022-10-25T14:40:19.865Z,101196.94
2022-10-25T14:42:46.953Z,101194.34
2022-10-25T14:45:20.419Z,101189.34
2022-10-25T14:47:47.240Z,101198.28
2022-10-25T14:50:15.325Z,101196.63
2022-10-25T14:52:44.744Z,101199.03
2022-10-25T14:55:19.392Z,101193.75
2022-10-25T14:57:47.019Z,101185.25
2022-10-25T15:00:19.703Z,101193.75
2022-10-25T15:02:48.594Z,101195.94
2022-10-25T15:05:18.842Z,101184.59
2022-10-25T15:07:47.198Z,101185.94
2022-10-25T15:10:41.031Z,101187.50
2022-10-25T15:13:15.882Z,101192.94
2022-10-25T15:15:45.078Z,101185.22
2022-10-25T15:18:37.080Z,101194.19
2022-10-25T15:21:13.585Z,101188.66
2022-10-25T15:23:42.183Z,101186.09
2022-10-25T15:26:25.327Z,101184.53
2022-10-25T15:28:54.568Z,101183.78
2022-10-25T15:31:24.761Z,101182.97
2022-10-25T15:34:00.455Z,101179.34
2022-10-25T15:36:29.187Z,101174.38
2022-10-25T15:39:17.001Z,101172.28
2022-10-25T15:41:45.360Z,101164.22
2022-10-25T15:44:12.091Z,101170.75
2022-10-25T15:46:40.075Z,101159.25
2022-10-25T15:49:08.425Z,101153.97
2022-10-25T15:51:38.627Z,101157.59
2022-10-25T15:54:05.864Z,101161.84
2022-10-25T15:56:32.603Z,101147.13
2022-10-25T15:59:02.425Z,101149.41
2022-10-25T16:01:29.525Z,101148.09
2022-10-25T16:03:56.487Z,101141.97
2022-10-25T16:06:24.637Z,101146.44
2022-10-25T16:08:51.421Z,101145.81
2022-10-25T16:11:21.260Z,101134.03
2022-10-25T16:13:51.500Z,101134.75
2022-10-25T16:19:13.849Z,101138.19
2022-10-25T16:21:40.605Z,101140.91
2022-10-25T16:24:07.568Z,101138.38
2022-10-25T16:26:37.705Z,101138.13
2022-10-25T16:29:04.594Z,101138.72
2022-10-25T16:31:31.405Z,101138.78
2022-10-25T16:33:58.184Z,101128.13
2022-10-25T16:36:26.360Z,101132.91
2022-10-25T16:38:53.368Z,101130.44
2022-10-25T16:41:24.284Z,101131.16
2022-10-25T16:43:51.307Z,101135.31
2022-10-25T16:46:18.542Z,101133.50
2022-10-25T16:48:45.430Z,101140.13
2022-10-25T16:51:13.159Z,101133.09
2022-10-25T16:53:49.035Z,101133.78
2022-10-25T16:56:20.578Z,101132.47
2022-10-25T16:58:51.672Z,101131.16
2022-10-25T17:01:20.627Z,101132.19
2022-10-25T17:03:48.773Z,101128.03
2022-10-25T17:06:39.618Z,101115.78
2022-10-25T17:09:04.200Z,101129.06
2022-10-25T17:11:31.018Z,101121.88
2022-10-25T17:13:57.789Z,101114.22
2022-10-25T17:16:24.633Z,101115.78
2022-10-25T17:18:51.445Z,101116.00
2022-10-25T17:21:18.569Z,101111.34
2022-10-25T17:23:45.474Z,101115.59
2022-10-25T17:26:14.043Z,101115.94
2022-10-25T17:28:43.944Z,101110.19
2022-10-25T17:31:13.776Z,101108.84
2022-10-25T17:33:41.217Z,101113.22
2022-10-25T17:36:10.689Z,101104.13
2022-10-25T17:38:37.866Z,101103.50
2022-10-25T17:41:05.355Z,101104.03
2022-10-25T17:43:34.643Z,101097.78
2022-10-25T17:46:02.980Z,101101.00
2022-10-25T17:48:30.441Z,101104.38
2022-10-25T17:51:01.740Z,101099.41
2022-10-25T17:53:28.715Z,101098.06
2022-10-25T17:55:55.551Z,101093.69
2022-10-25T17:58:22.435Z,101100.34
2022-10-25T18:00:51.053Z,101098.72
2022-10-25T18:03:17.916Z,101098.25
2022-10-25T18:05:44.792Z,101096.25
2022-10-25T18:08:11.632Z,101088.63
2022-10-25T18:10:38.475Z,101093.69
2022-10-25T18:13:05.258Z,101096.59
2022-10-25T18:15:33.420Z,101093.38
2022-10-25T18:18:01.893Z,101090.50
2022-10-25T18:20:29.179Z,101090.44
2022-10-25T18:22:55.946Z,101086.41
2022-10-25T18:25:22.652Z,101085.25
2022-10-25T18:27:49.896Z,101094.06
2022-10-25T18:30:17.063Z,101078.81
2022-10-25T18:32:43.969Z,101092.50
2022-10-25T18:35:12.167Z,101085.16
2022-10-25T18:37:39.040Z,101085.41
2022-10-25T18:40:07.354Z,101086.81
2022-10-25T18:42:35.115Z,101081.41
2022-10-25T18:45:03.794Z,101069.25
2022-10-25T18:47:30.495Z,101074.81
2022-10-25T18:49:57.320Z,101073.25
2022-10-25T18:52:26.429Z,101071.72
2022-10-25T18:54:53.609Z,101070.47
2022-10-25T18:57:20.477Z,101061.06
2022-10-25T18:59:47.656Z,101071.47
2022-10-25T19:02:14.670Z,101062.88
2022-10-25T19:04:41.641Z,101058.66
2022-10-25T19:07:08.403Z,101053.16
2022-10-25T19:09:36.526Z,101061.69
2022-10-25T19:12:03.605Z,101045.25
2022-10-25T19:14:30.340Z,101047.72
2022-10-25T19:16:57.104Z,101043.03
2022-10-25T19:19:23.848Z,101047.72
2022-10-25T19:21:50.741Z,101037.81
2022-10-25T19:24:17.549Z,101047.75
2022-10-25T19:26:46.097Z,101041.75
2022-10-25T19:29:12.868Z,101036.66
2022-10-25T19:31:39.609Z,101040.00
2022-10-25T19:34:06.416Z,101033.09
2022-10-25T19:36:33.439Z,101025.78
2022-10-25T19:39:01.408Z,101026.00
2022-10-25T19:41:28.282Z,101028.59
2022-10-25T19:43:58.033Z,101021.47
2022-10-25T19:46:24.967Z,101022.97
2022-10-25T19:48:51.808Z,101018.81
2022-10-25T19:51:20.512Z,101013.75
2022-10-25T19:53:48.603Z,101018.22
2022-10-25T19:56:17.626Z,101018.66
2022-10-25T19:58:44.505Z,101013.56
2022-10-25T20:01:14.561Z,101009.34
2022-10-25T20:03:42.486Z,101005.84
2022-10-25T20:06:11.185Z,101013.69
2022-10-25T20:08:39.723Z,101012.63
2022-10-25T20:11:08.467Z,101006.72
2022-10-25T20:13:35.265Z,101003.84
2022-10-25T20:16:03.202Z,101005.22
2022-10-25T20:18:34.318Z,101007.09
2022-10-25T20:21:04.832Z,101010.06
2022-10-25T20:23:32.102Z,101000.00
2022-10-25T20:25:58.992Z,100994.91
2022-10-25T20:28:25.905Z,101001.13
2022-10-25T20:30:52.694Z,100996.13
2022-10-25T20:33:22.205Z,100992.81
2022-10-25T20:35:50.472Z,100996.75
2022-10-25T20:38:17.272Z,100996.16
2022-10-25T20:40:45.443Z,100993.81
2022-10-25T20:43:12.186Z,100998.06
2022-10-25T20:45:41.586Z,100995.41
2022-10-25T20:48:10.186Z,100996.59
2022-10-25T20:50:37.009Z,100991.69
2022-10-25T20:53:10.110Z,100997.75
2022-10-25T20:55:37.745Z,100997.75
2022-10-25T20:58:04.563Z,100991.38
2022-10-25T21:00:32.451Z,100995.22
2022-10-25T21:02:59.678Z,100993.75
2022-10-25T21:05:26.655Z,100997.78
2022-10-25T21:07:53.503Z,100985.81
2022-10-25T21:10:21.681Z,100984.19
2022-10-25T21:12:48.422Z,100986.19
2022-10-25T21:15:15.301Z,100991.84
2022-10-25T21:17:42.070Z,100985.84
2022-10-25T21:20:09.878Z,100988.72
2022-10-25T21:22:41.084Z,100988.72
2022-10-25T21:25:09.055Z,100995.91
2022-10-25T21:27:37.183Z,100991.69
2022-10-25T21:30:04.345Z,100994.22
2022-10-25T21:32:31.086Z,100990.19
2022-10-25T21:34:57.854Z,100985.81
2022-10-25T21:37:24.970Z,100987.53
2022-10-25T21:39:51.767Z,100985.50
2022-10-25T21:42:18.551Z,100979.38
2022-10-25T21:44:46.713Z,100970.56
2022-10-25T21:47:13.485Z,100978.00
2022-10-25T21:49:40.289Z,100976.06
2022-10-25T21:52:07.091Z,100975.25
2022-10-25T21:54:34.044Z,100968.19
2022-10-25T21:57:00.756Z,100970.34
2022-10-25T21:59:27.607Z,100970.88
2022-10-25T22:01:55.871Z,100971.50
2022-10-25T22:04:23.908Z,100962.03
2022-10-25T22:06:50.792Z,100962.69
2022-10-25T22:09:17.572Z,100956.97
2022-10-25T22:11:44.465Z,100960.41
2022-10-25T22:14:14.037Z,100957.81
2022-10-25T22:16:40.865Z,100954.28
2022-10-25T22:19:14.556Z,100950.81
2022-10-25T22:21:41.578Z,100952.06
2022-10-25T22:24:10.408Z,100946.16
2022-10-25T22:26:38.913Z,100950.00
2022-10-25T22:29:06.306Z,100948.16
2022-10-25T22:31:33.942Z,100946.84
2022-10-25T22:34:03.624Z,100939.63
2022-10-25T22:36:34.520Z,100939.00
2022-10-25T22:39:03.082Z,100942.75
2022-10-25T22:41:30.998Z,100931.72
2022-10-25T22:43:58.343Z,100928.69
2022-10-25T22:46:27.808Z,100927.34
2022-10-25T22:48:55.928Z,100926.81
2022-10-25T22:51:24.222Z,100923.72
2022-10-25T22:53:52.605Z,100920.47
2022-10-25T22:56:21.452Z,100916.47
2022-10-25T22:58:50.205Z,100900.44
2022-10-25T23:01:19.520Z,100901.19
2022-10-25T23:03:48.907Z,100902.38
2022-10-25T23:06:17.435Z,100897.50
2022-10-25T23:08:44.888Z,100887.41
2022-10-25T23:11:15.324Z,100889.72
2022-10-25T23:13:42.650Z,100883.59
2022-10-25T23:16:11.588Z,100887.03
2022-10-25T23:18:39.434Z,100884.16
2022-10-25T23:21:10.590Z,100884.13
2022-10-25T23:23:38.804Z,100877.88
2022-10-25T23:28:40.477Z,100868.03
2022-10-25T23:31:09.457Z,100869.63
2022-10-25T23:33:36.453Z,100871.47
2022-10-25T23:36:05.208Z,100860.25
2022-10-25T23:38:32.381Z,100865.06
2022-10-25T23:40:59.114Z,100866.19
2022-10-25T23:43:26.198Z,100860.78
2022-10-25T23:45:54.499Z,100860.63
2022-10-25T23:48:21.374Z,100865.84
2022-10-25T23:50:55.093Z,100858.59
2022-10-25T23:53:22.120Z,100856.63
2022-10-25T23:55:48.973Z,100846.88
2022-10-25T23:58:15.801Z,100853.06
